createdAt,value
2018-06-28T00:04:08.295Z,99.90
2018-06-28T00:09:12.515Z,99.90
2018-06-28T00:14:16.030Z,99.90
2018-06-28T00:19:19.486Z,99.90
2018-06-28T00:24:22.970Z,99.90
2018-06-28T00:29:27.425Z,99.90
2018-06-28T00:34:46.671Z,99.90
2018-06-28T00:39:51.138Z,99.90
2018-06-28T00:44:58.554Z,99.90
2018-06-28T00:50:02.084Z,99.90
2018-06-28T00:55:05.626Z,99.90
2018-06-28T01:00:09.242Z,99.90
2018-06-28T01:05:12.828Z,99.90
2018-06-28T01:15:22.550Z,99.90
2018-06-28T01:20:26.808Z,99.90
2018-06-28T01:25:30.347Z,99.90
2018-06-28T01:30:33.855Z,99.90
2018-06-28T01:35:39.436Z,99.90
2018-06-28T01:40:45.224Z,99.90
2018-06-28T01:45:48.639Z,99.90
2018-06-28T01:50:52.224Z,99.90
2018-06-28T01:55:55.811Z,99.90
2018-06-28T02:00:59.341Z,99.90
2018-06-28T02:06:02.962Z,99.90
2018-06-28T02:11:06.783Z,99.90
2018-06-28T02:16:10.243Z,99.90
2018-06-28T02:21:13.903Z,99.90
2018-06-28T02:26:17.687Z,99.90
2018-06-28T02:31:21.278Z,99.90
2018-06-28T02:36:24.814Z,99.90
2018-06-28T02:41:28.768Z,99.90
2018-06-28T02:46:32.439Z,99.90
2018-06-28T02:51:35.950Z,99.90
2018-06-28T02:56:39.657Z,99.90
2018-06-28T03:01:43.390Z,99.90
2018-06-28T03:06:47.785Z,99.90
2018-06-28T03:11:51.860Z,99.90
2018-06-28T03:16:55.345Z,99.90
2018-06-28T03:21:58.761Z,99.90
2018-06-28T03:27:02.679Z,99.90
2018-06-28T03:32:06.574Z,99.90
2018-06-28T03:37:10.186Z,99.90
2018-06-28T03:42:14.143Z,99.90
2018-06-28T03:47:18.879Z,99.90
2018-06-28T03:52:22.533Z,99.90
2018-06-28T03:57:26.968Z,99.90
2018-06-28T04:02:30.429Z,99.90
2018-06-28T04:07:33.937Z,99.90
2018-06-28T04:12:37.422Z,99.90
2018-06-28T04:17:40.908Z,99.90
2018-06-28T04:22:44.439Z,99.90
2018-06-28T04:27:47.868Z,99.90
2018-06-28T04:32:57.927Z,99.90
2018-06-28T04:38:01.516Z,99.90
2018-06-28T04:43:05.498Z,99.90
2018-06-28T04:48:09.291Z,99.90
2018-06-28T04:53:12.845Z,99.90
2018-06-28T04:58:16.279Z,99.90
2018-06-28T05:03:19.676Z,99.90
2018-06-28T05:08:23.192Z,99.90
2018-06-28T05:13:26.699Z,99.90
2018-06-28T05:18:30.461Z,99.90
2018-06-28T05:23:34.155Z,99.90
2018-06-28T05:28:38.479Z,99.90
2018-06-28T05:33:42.652Z,99.90
2018-06-28T05:38:49.066Z,99.90
2018-06-28T05:43:52.663Z,99.90
2018-06-28T05:48:56.195Z,99.90
2018-06-28T05:53:59.835Z,99.90
2018-06-28T05:59:03.327Z,99.90
2018-06-28T06:04:07.328Z,99.90
2018-06-28T06:09:11.609Z,99.90
2018-06-28T06:14:15.992Z,99.90
2018-06-28T06:19:20.926Z,99.90
2018-06-28T06:24:26.501Z,99.90
2018-06-28T06:29:30.032Z,99.90
2018-06-28T06:34:33.433Z,99.90
2018-06-28T06:39:36.935Z,99.90
2018-06-28T06:44:40.398Z,99.90
2018-06-28T06:54:47.107Z,99.90
2018-06-28T06:59:50.684Z,99.90
2018-06-28T07:04:54.326Z,99.90
2018-06-28T07:09:57.789Z,99.90
2018-06-28T07:15:01.254Z,99.90
2018-06-28T07:20:04.816Z,99.90
2018-06-28T07:25:09.495Z,99.90
2018-06-28T07:30:12.994Z,99.90
2018-06-28T07:35:16.470Z,99.90
2018-06-28T07:40:20.070Z,99.90
2018-06-28T07:45:26.857Z,99.90
2018-06-28T07:50:31.025Z,99.90
2018-06-28T07:55:36.150Z,99.90
2018-06-28T08:00:40.301Z,99.90
2018-06-28T08:05:45.008Z,99.60
2018-06-28T08:10:48.636Z,99.90
2018-06-28T08:15:52.197Z,99.10
2018-06-28T08:20:56.053Z,99.20
2018-06-28T08:25:59.603Z,97.70
2018-06-28T08:31:03.097Z,97.40
2018-06-28T08:36:06.585Z,96.50
2018-06-28T08:41:10.238Z,95.90
2018-06-28T08:46:13.706Z,95.90
2018-06-28T08:51:17.317Z,96.00
2018-06-28T08:56:20.896Z,95.70
2018-06-28T09:01:25.686Z,94.50
2018-06-28T09:06:32.730Z,93.30
2018-06-28T09:11:44.046Z,93.00
2018-06-28T09:16:50.929Z,92.40
2018-06-28T09:21:54.501Z,91.50
2018-06-28T09:26:57.878Z,90.60
2018-06-28T09:32:09.652Z,88.70
2018-06-28T09:37:14.416Z,88.70
2018-06-28T09:42:20.063Z,86.80
2018-06-28T09:47:37.220Z,87.50
2018-06-28T09:52:42.232Z,86.10
2018-06-28T09:57:46.269Z,85.20
2018-06-28T10:02:49.822Z,82.80
2018-06-28T10:07:53.563Z,79.90
2018-06-28T10:13:00.194Z,79.40
2018-06-28T10:18:06.633Z,80.50
2018-06-28T10:23:10.185Z,79.40
2018-06-28T10:28:14.268Z,80.10
2018-06-28T10:33:17.834Z,77.40
2018-06-28T10:38:21.611Z,75.70
2018-06-28T10:43:25.955Z,74.30
2018-06-28T10:48:29.616Z,73.60
2018-06-28T10:53:33.066Z,73.30
2018-06-28T10:58:36.570Z,71.80
2018-06-28T11:03:40.099Z,71.70
2018-06-28T11:08:44.635Z,70.80
2018-06-28T11:13:48.398Z,71.20
2018-06-28T11:18:53.044Z,71.80
2018-06-28T11:23:56.490Z,71.40
2018-06-28T11:29:00.265Z,69.20
2018-06-28T11:34:07.829Z,70.40
2018-06-28T11:39:40.092Z,70.00
2018-06-28T11:44:45.050Z,72.20
2018-06-28T11:49:50.049Z,73.00
2018-06-28T11:55:00.321Z,71.80
2018-06-28T12:00:05.471Z,72.70
2018-06-28T12:05:13.885Z,71.80
2018-06-28T12:10:17.556Z,71.70
2018-06-28T12:15:21.247Z,74.20
2018-06-28T12:25:52.543Z,74.40
2018-06-28T12:30:59.463Z,74.30
2018-06-28T12:41:39.305Z,73.10
2018-06-28T12:47:59.294Z,73.40
2018-06-28T12:53:10.123Z,73.30
2018-06-28T13:03:18.978Z,68.60
2018-06-28T13:08:24.493Z,66.80
2018-06-28T13:13:30.273Z,65.20
2018-06-28T13:18:38.293Z,66.30
2018-06-28T13:23:46.363Z,66.80
2018-06-28T13:28:49.955Z,65.70
2018-06-28T13:33:54.020Z,63.60
2018-06-28T13:38:57.565Z,60.70
2018-06-28T13:44:01.030Z,63.10
2018-06-28T13:49:05.840Z,60.80
2018-06-28T13:54:10.173Z,62.20
2018-06-28T13:59:15.703Z,62.70
2018-06-28T14:04:19.199Z,63.50
2018-06-28T14:09:22.932Z,63.40
2018-06-28T14:14:30.858Z,64.50
2018-06-28T14:19:36.306Z,65.50
2018-06-28T14:24:39.870Z,65.20
2018-06-28T14:29:43.222Z,65.80
2018-06-28T14:34:46.885Z,63.20
2018-06-28T14:39:50.403Z,63.70
2018-06-28T14:44:53.876Z,63.20
2018-06-28T14:49:57.342Z,63.30
2018-06-28T14:55:00.816Z,64.00
2018-06-28T15:00:04.745Z,61.50
2018-06-28T15:05:08.403Z,59.80
2018-06-28T15:10:12.244Z,60.50
2018-06-28T15:15:15.718Z,62.10
2018-06-28T15:25:23.267Z,64.50
2018-06-28T15:30:26.795Z,66.10
2018-06-28T15:35:30.346Z,67.00
2018-06-28T15:40:33.755Z,67.70
2018-06-28T15:45:37.189Z,68.20
2018-06-28T15:50:40.651Z,68.20
2018-06-28T15:55:44.078Z,67.90
2018-06-28T16:00:47.544Z,66.80
2018-06-28T16:05:51.350Z,63.40
2018-06-28T16:10:54.871Z,62.60
2018-06-28T16:15:58.497Z,59.60
2018-06-28T16:21:01.953Z,59.30
2018-06-28T16:26:05.570Z,60.30
2018-06-28T16:31:09.041Z,60.70
2018-06-28T16:36:12.533Z,61.20
2018-06-28T16:41:16.228Z,58.50
2018-06-28T16:51:48.921Z,60.60
2018-06-28T16:56:54.041Z,60.60
2018-06-28T17:01:58.291Z,61.70
2018-06-28T17:07:01.913Z,62.20
2018-06-28T17:12:05.648Z,60.80
2018-06-28T17:17:10.097Z,62.50
2018-06-28T17:22:13.726Z,59.60
2018-06-28T17:27:17.393Z,60.10
2018-06-28T17:32:20.839Z,59.90
2018-06-28T17:42:34.664Z,64.50
2018-06-28T17:47:38.064Z,67.80
2018-06-28T17:52:41.523Z,65.60
2018-06-28T17:57:46.646Z,64.50
2018-06-28T18:03:32.938Z,65.10
2018-06-28T18:08:38.581Z,66.50
2018-06-28T18:13:49.812Z,67.40
2018-06-28T18:18:58.846Z,65.70
2018-06-28T18:24:06.620Z,66.30
2018-06-28T18:29:11.412Z,66.80
2018-06-28T18:34:27.715Z,69.00
2018-06-28T18:39:31.158Z,70.00
2018-06-28T18:44:34.556Z,71.60
2018-06-28T18:49:39.719Z,71.80
2018-06-28T18:54:43.310Z,72.40
2018-06-28T19:04:53.075Z,73.30
2018-06-28T19:10:01.868Z,73.50
2018-06-28T19:15:10.621Z,74.50
2018-06-28T19:20:14.149Z,74.40
2018-06-28T19:25:17.600Z,74.20
2018-06-28T19:30:30.750Z,74.70
2018-06-28T19:35:34.260Z,75.60
2018-06-28T19:40:45.106Z,76.30
2018-06-28T19:45:51.634Z,77.30
2018-06-28T19:51:02.792Z,79.20
2018-06-28T19:56:15.509Z,80.30
2018-06-28T20:01:25.178Z,82.40
2018-06-28T20:06:37.288Z,83.40
2018-06-28T20:11:43.753Z,83.30
2018-06-28T20:16:52.389Z,84.80
2018-06-28T20:22:00.041Z,86.00
2018-06-28T20:27:10.248Z,86.90
2018-06-28T20:32:24.554Z,87.10
2018-06-28T20:37:30.096Z,87.30
2018-06-28T20:42:36.502Z,88.00
2018-06-28T20:47:48.339Z,88.80
2018-06-28T20:52:56.847Z,89.60
2018-06-28T20:58:08.543Z,90.40
2018-06-28T21:03:12.057Z,90.90
2018-06-28T21:08:24.230Z,91.40
2018-06-28T21:13:35.603Z,91.60
2018-06-28T21:18:52.574Z,91.90
2018-06-28T21:23:59.635Z,92.00
2018-06-28T21:40:12.785Z,92.70
2018-06-28T21:45:18.450Z,92.80
2018-06-28T21:50:46.065Z,92.90
2018-06-28T21:57:31.288Z,93.20
2018-06-28T22:08:41.783Z,93.40
2018-06-28T22:24:54.065Z,94.40
2018-06-28T22:30:00.759Z,94.80
2018-06-28T22:35:09.026Z,95.10
2018-06-28T22:40:21.869Z,95.20
2018-06-28T22:45:36.168Z,95.60
2018-06-28T22:50:44.454Z,95.90
2018-06-28T22:55:49.656Z,96.80
2018-06-28T23:00:58.153Z,97.30
2018-06-28T23:06:31.915Z,97.60
2018-06-28T23:11:37.787Z,98.10
2018-06-28T23:22:05.688Z,98.80
2018-06-28T23:27:16.990Z,98.70
2018-06-28T23:32:22.055Z,99.30
2018-06-28T23:37:27.041Z,99.40
2018-06-28T23:42:31.206Z,99.50
2018-06-28T23:47:41.908Z,99.90
2018-06-28T23:52:49.307Z,99.90
2018-06-28T23:57:54.042Z,99.90
